Time;durP1;ratioP1;P1;durP2;ratioP2;P2;SDS_P1;SDS_P2;PMS_P1;PMS_P2;Temp;Humidity;BMP_temperature;BMP_pressure;BME280_temperature;BME280_humidity;BME280_pressure;Samples;Min_cycle;Max_cycle;Signal;HPM_P1;HPM_P2
2022/01/26 00:07:44;;;;;;;9.57;3.15;;;;;;;7.11;100.00;101467.63;5024802;28;20053;-48
2022/01/26 00:10:47;;;;;;;4.97;1.55;;;;;;;6.99;100.00;101463.41;5032587;28;20064;-48
2022/01/26 00:13:51;;;;;;;7.60;2.10;;;;;;;6.95;100.00;101454.38;5018609;28;20064;-48
2022/01/26 00:16:55;;;;;;;12.32;2.63;;;;;;;6.88;100.00;101459.97;5038150;28;20060;-48
2022/01/26 00:20:12;;;;;;;2.78;1.35;;;;;;;6.74;100.00;101460.88;4993493;28;20542;-48
2022/01/26 00:23:52;;;;;;;2.53;2.30;;;;;;;6.56;100.00;101473.31;5006227;28;20136;-48
2022/01/26 00:27:05;;;;;;;16.65;3.83;;;;;;;6.40;100.00;101484.13;4991967;28;20056;-48
2022/01/26 00:40:34;;;;;;;14.25;2.15;;;;;;;6.27;100.00;101480.28;5005058;28;20050;-48
2022/01/26 00:43:43;;;;;;;11.38;1.95;;;;;;;6.27;100.00;101471.97;5032649;28;20553;-48
2022/01/26 00:46:49;;;;;;;7.40;1.95;;;;;;;6.21;100.00;101462.53;5017983;28;20510;-48
2022/01/26 00:49:58;;;;;;;8.93;1.95;;;;;;;6.10;100.00;101471.72;5027305;28;20164;-49
2022/01/26 00:53:03;;;;;;;5.05;2.05;;;;;;;6.07;100.00;101486.34;5028696;28;20056;-48
2022/01/26 00:56:08;;;;;;;4.55;1.00;;;;;;;6.01;100.00;101479.66;5000468;28;20076;-48
2022/01/26 00:59:12;;;;;;;4.10;1.77;;;;;;;5.93;100.00;101478.13;4986542;28;20064;-48
2022/01/26 01:02:15;;;;;;;7.90;1.98;;;;;;;6.00;100.00;101489.13;5025645;28;20057;-48
2022/01/26 01:05:27;;;;;;;11.60;2.28;;;;;;;5.92;100.00;101490.38;5012856;28;20048;-48
2022/01/26 01:08:31;;;;;;;0.88;0.75;;;;;;;5.89;100.00;101477.34;4995853;28;20482;-48
2022/01/26 01:11:34;;;;;;;3.17;1.00;;;;;;;5.87;100.00;101474.22;5030580;28;20064;-48
2022/01/26 01:14:39;;;;;;;5.18;1.52;;;;;;;5.84;100.00;101477.81;4986049;28;20057;-48
2022/01/26 01:17:51;;;;;;;5.20;1.42;;;;;;;5.80;100.00;101474.25;4964971;28;20113;-48
2022/01/26 01:24:39;;;;;;;4.88;1.65;;;;;;;5.57;100.00;101475.91;4988252;28;20054;-48
2022/01/26 01:30:48;;;;;;;5.90;1.80;;;;;;;5.47;100.00;101498.88;4973675;28;20127;-48
2022/01/26 01:33:52;;;;;;;4.82;1.17;;;;;;;5.49;100.00;101480.69;4992761;28;20089;-48
2022/01/26 01:37:01;;;;;;;4.90;1.10;;;;;;;5.47;100.00;101485.84;4984350;28;20061;-48
2022/01/26 01:40:05;;;;;;;3.35;0.77;;;;;;;5.49;100.00;101507.53;4923921;28;20101;-48
2022/01/26 01:43:12;;;;;;;5.07;1.50;;;;;;;5.60;100.00;101491.72;4947563;28;20073;-48
2022/01/26 01:46:16;;;;;;;2.50;1.63;;;;;;;5.69;100.00;101490.09;4950248;28;20535;-49
2022/01/26 01:49:20;;;;;;;9.25;2.90;;;;;;;5.83;100.00;101489.22;4971611;28;20066;-48
2022/01/26 01:52:24;;;;;;;8.95;0.98;;;;;;;5.92;100.00;101470.22;4946868;28;20066;-48
2022/01/26 01:55:29;;;;;;;3.15;1.27;;;;;;;6.00;100.00;101455.97;4960121;28;20061;-48
2022/01/26 01:58:33;;;;;;;5.13;1.58;;;;;;;6.02;100.00;101469.41;4944481;28;20058;-48
2022/01/26 02:01:38;;;;;;;3.05;1.50;;;;;;;6.02;100.00;101470.16;4922230;29;20103;-48
2022/01/26 02:04:42;;;;;;;8.05;1.73;;;;;;;6.04;100.00;101464.25;4932038;28;20055;-48
2022/01/26 02:07:45;;;;;;;7.30;1.58;;;;;;;6.11;100.00;101464.19;4907839;29;20074;-48
2022/01/26 02:10:50;;;;;;;9.73;2.53;;;;;;;6.00;100.00;101442.13;4921739;29;20066;-48
2022/01/26 02:17:38;;;;;;;0.70;0.60;;;;;;;5.91;100.00;101447.31;4942688;28;20055;-48
2022/01/26 02:51:07;;;;;;;5.35;1.42;;;;;;;6.55;100.00;101507.72;4936113;28;20396;-48
2022/01/26 03:00:46;;;;;;;3.00;1.33;;;;;;;6.76;100.00;101490.91;4959014;28;20057;-49
2022/01/26 03:10:21;;;;;;;3.13;0.88;;;;;;;6.84;100.00;101467.53;4945757;28;20058;-48
2022/01/26 03:13:28;;;;;;;3.70;1.88;;;;;;;6.87;100.00;101475.00;4936362;28;20579;-48
2022/01/26 03:16:39;;;;;;;5.72;1.95;;;;;;;6.91;100.00;101478.50;4987911;28;20062;-48
2022/01/26 03:19:47;;;;;;;0.50;0.50;;;;;;;6.96;100.00;101471.75;4927726;29;20066;-48
2022/01/26 03:30:00;;;;;;;0.90;0.50;;;;;;;7.08;100.00;101441.53;4837242;29;20072;-48
2022/01/26 03:36:13;;;;;;;6.88;1.42;;;;;;;7.12;100.00;101444.28;4907297;29;20063;-48
2022/01/26 03:39:20;;;;;;;1.80;0.77;;;;;;;7.16;100.00;101442.25;4909679;29;20414;-48
2022/01/26 03:42:23;;;;;;;10.70;1.73;;;;;;;7.15;100.00;101435.13;4908378;29;20058;-48
2022/01/26 03:45:27;;;;;;;7.03;0.80;;;;;;;7.17;100.00;101444.59;4917502;29;20066;-48
2022/01/26 03:48:30;;;;;;;13.25;3.15;;;;;;;7.19;100.00;101442.19;4894077;29;20055;-48
2022/01/26 03:51:34;;;;;;;7.90;2.05;;;;;;;7.19;100.00;101447.72;4838172;29;20490;-48
2022/01/26 03:54:38;;;;;;;1.92;1.60;;;;;;;7.16;100.00;101445.81;4881261;29;20059;-48
2022/01/26 03:57:42;;;;;;;1.42;0.68;;;;;;;7.14;100.00;101467.59;4852879;29;20406;-48
2022/01/26 04:00:45;;;;;;;6.38;2.08;;;;;;;7.15;100.00;101462.81;4878947;29;20528;-48
2022/01/26 04:03:49;;;;;;;4.70;1.83;;;;;;;7.12;100.00;101453.38;4878345;29;20066;-48
2022/01/26 04:06:54;;;;;;;3.35;1.48;;;;;;;7.13;100.00;101449.41;4874761;29;20060;-48
2022/01/26 04:10:06;;;;;;;4.07;1.00;;;;;;;7.12;100.00;101447.84;4903783;29;20067;-48
2022/01/26 04:13:10;;;;;;;6.40;2.38;;;;;;;7.10;100.00;101439.16;4874590;29;20067;-48
2022/01/26 04:16:13;;;;;;;12.13;0.93;;;;;;;7.14;100.00;101437.13;4858901;29;20056;-48
2022/01/26 04:19:18;;;;;;;1.38;0.93;;;;;;;7.20;100.00;101432.69;4897420;29;20060;-48
2022/01/26 04:22:29;;;;;;;1.10;0.55;;;;;;;7.23;100.00;101434.66;4897773;29;20986;-48
2022/01/26 04:25:34;;;;;;;7.82;1.42;;;;;;;7.21;100.00;101425.94;4881367;29;20067;-48
2022/01/26 04:29:15;;;;;;;7.97;1.67;;;;;;;7.21;100.00;101423.16;4897652;29;20229;-48
2022/01/26 04:32:08;;;;;;;13.77;1.45;;;;;;;7.22;100.00;101416.44;4888020;29;20532;-48
2022/01/26 04:35:11;;;;;;;3.78;0.73;;;;;;;7.18;100.00;101403.81;4865550;29;20057;-48
2022/01/26 04:41:33;;;;;;;10.88;1.52;;;;;;;7.17;100.00;101397.50;4844449;29;20079;-48
2022/01/26 04:44:44;;;;;;;5.15;2.05;;;;;;;7.19;100.00;101400.63;4897641;29;20495;-48
2022/01/26 04:47:48;;;;;;;7.18;1.27;;;;;;;7.20;100.00;101407.75;4855397;29;20518;-48
2022/01/26 04:50:52;;;;;;;7.20;1.65;;;;;;;7.19;100.00;101406.19;4872457;29;20079;-48
2022/01/26 04:53:55;;;;;;;11.40;1.75;;;;;;;7.21;100.00;101401.00;4887802;29;20573;-49
2022/01/26 04:56:59;;;;;;;12.05;0.90;;;;;;;7.23;100.00;101400.59;4913201;29;20064;-48
2022/01/26 05:00:04;;;;;;;4.30;1.40;;;;;;;7.26;100.00;101397.78;4866678;29;20425;-49
2022/01/26 05:03:07;;;;;;;11.80;0.73;;;;;;;7.27;100.00;101404.91;4895836;29;20067;-48
2022/01/26 05:06:11;;;;;;;9.27;1.48;;;;;;;7.29;100.00;101408.03;4900821;29;20052;-48
2022/01/26 05:09:15;;;;;;;3.88;1.38;;;;;;;7.31;100.00;101421.47;4921505;28;20101;-48
2022/01/26 05:12:19;;;;;;;4.45;1.70;;;;;;;7.32;100.00;101414.75;4941246;28;20750;-48
2022/01/26 05:15:24;;;;;;;11.60;3.10;;;;;;;7.37;100.00;101405.97;4964677;28;20519;-48
2022/01/26 05:18:29;;;;;;;2.60;1.65;;;;;;;7.38;100.00;101411.09;4974004;28;20427;-48
2022/01/26 05:21:34;;;;;;;3.33;1.25;;;;;;;7.39;100.00;101412.66;4964770;28;20074;-48
2022/01/26 05:24:37;;;;;;;5.53;1.27;;;;;;;7.46;100.00;101420.09;4966023;28;20058;-48
2022/01/26 05:27:41;;;;;;;3.33;0.63;;;;;;;7.47;100.00;101408.56;4939764;28;20094;-48
2022/01/26 05:30:45;;;;;;;8.27;2.13;;;;;;;7.42;100.00;101411.84;4963431;28;20518;-48
2022/01/26 05:33:49;;;;;;;3.72;1.65;;;;;;;7.42;100.00;101417.38;4936028;28;20062;-48
2022/01/26 05:36:52;;;;;;;13.15;1.25;;;;;;;7.38;100.00;101415.84;4935497;29;20136;-48
2022/01/26 05:39:56;;;;;;;4.15;2.20;;;;;;;7.35;100.00;101420.22;4915131;29;20055;-48
2022/01/26 05:42:59;;;;;;;2.70;1.15;;;;;;;7.34;100.00;101418.66;4952395;29;20066;-48
2022/01/26 05:46:15;;;;;;;3.95;1.88;;;;;;;7.35;100.00;101417.47;4886161;29;20544;-48
2022/01/26 05:49:19;;;;;;;3.72;2.03;;;;;;;7.35;100.00;101409.16;4914564;29;20111;-48
2022/01/26 05:52:22;;;;;;;0.30;0.28;;;;;;;7.28;100.00;101406.47;4912890;29;20067;-48
2022/01/26 05:55:25;;;;;;;3.05;0.93;;;;;;;7.24;100.00;101394.66;4914215;29;20062;-48
2022/01/26 05:58:29;;;;;;;3.75;0.77;;;;;;;7.19;100.00;101395.09;4955749;28;20069;-48
2022/01/26 06:01:32;;;;;;;2.10;1.02;;;;;;;7.13;100.00;101399.53;4981049;28;20057;-48
2022/01/26 06:04:36;;;;;;;1.70;0.90;;;;;;;7.07;100.00;101401.19;4970897;28;20049;-48
2022/01/26 06:07:39;;;;;;;3.22;1.02;;;;;;;7.05;100.00;101400.81;4955030;28;20069;-48
2022/01/26 06:10:42;;;;;;;2.47;0.80;;;;;;;7.02;100.00;101398.88;4991090;28;20061;-48
2022/01/26 06:13:46;;;;;;;10.60;1.92;;;;;;;7.03;100.00;101406.00;4990489;28;20534;-48
2022/01/26 06:16:49;;;;;;;8.55;1.23;;;;;;;7.02;100.00;101409.94;4990396;28;20476;-48
2022/01/26 06:19:52;;;;;;;6.05;1.23;;;;;;;7.00;100.00;101401.25;4990372;28;20202;-48
2022/01/26 06:22:56;;;;;;;6.32;1.02;;;;;;;7.02;100.00;101404.41;4965717;28;20061;-48
2022/01/26 06:26:00;;;;;;;2.85;1.17;;;;;;;7.03;100.00;101410.75;4946795;28;20077;-48
2022/01/26 06:29:03;;;;;;;2.00;0.77;;;;;;;6.96;100.00;101413.59;4989239;28;20065;-48
2022/01/26 06:32:07;;;;;;;8.57;1.48;;;;;;;6.94;100.00;101425.09;4988415;28;20517;-48
2022/01/26 06:35:11;;;;;;;8.80;1.75;;;;;;;6.94;100.00;101430.63;4967468;28;20072;-48
2022/01/26 06:38:15;;;;;;;2.50;0.90;;;;;;;6.96;100.00;101424.66;4966736;28;20073;-48
2022/01/26 06:41:24;;;;;;;2.75;1.58;;;;;;;6.93;100.00;101429.03;5005968;28;20521;-48
2022/01/26 06:44:34;;;;;;;5.97;1.48;;;;;;;6.97;100.00;101417.94;4988754;28;20065;-48
2022/01/26 06:51:14;;;;;;;24.10;3.20;;;;;;;7.03;100.00;101410.75;4969451;28;20283;-48
2022/01/26 06:54:18;;;;;;;15.00;3.22;;;;;;;7.11;100.00;101407.47;4984340;28;20050;-48
2022/01/26 06:57:21;;;;;;;6.13;2.13;;;;;;;7.09;100.00;101404.34;4954898;28;20058;-48
2022/01/26 07:00:25;;;;;;;7.60;2.40;;;;;;;7.07;100.00;101400.41;4949736;28;20062;-48
2022/01/26 07:03:29;;;;;;;21.52;5.85;;;;;;;6.95;100.00;101396.19;4957198;28;20065;-48
2022/01/26 07:06:32;;;;;;;25.05;3.53;;;;;;;6.85;100.00;101394.31;4958155;28;20050;-48
2022/01/26 07:09:36;;;;;;;25.05;4.43;;;;;;;6.73;100.00;101403.16;4970635;28;20062;-48
2022/01/26 07:12:39;;;;;;;8.85;1.92;;;;;;;6.59;100.00;101389.47;4961184;28;20058;-48
2022/01/26 07:22:27;;;;;;;3.40;1.35;;;;;;;6.29;100.00;101378.28;4943717;28;20062;-48
2022/01/26 07:25:32;;;;;;;7.80;2.00;;;;;;;6.23;100.00;101388.22;4981498;28;20403;-48
2022/01/26 07:28:38;;;;;;;5.32;1.17;;;;;;;6.14;100.00;101385.94;4976564;28;20062;-48
2022/01/26 07:31:42;;;;;;;5.75;1.50;;;;;;;6.08;100.00;101393.09;4955490;28;20061;-48
2022/01/26 07:34:46;;;;;;;0.77;0.77;;;;;;;6.04;100.00;101395.88;4974142;28;20069;-48
2022/01/26 07:37:50;;;;;;;1.10;0.60;;;;;;;5.99;100.00;101390.81;4932033;28;20440;-48
2022/01/26 07:40:54;;;;;;;4.38;0.82;;;;;;;5.99;100.00;101392.78;4970585;28;20061;-48
2022/01/26 07:43:57;;;;;;;6.25;1.83;;;;;;;5.92;100.00;101377.03;4958560;28;20779;-48
2022/01/26 07:47:01;;;;;;;13.95;1.80;;;;;;;5.96;100.00;101377.78;4960438;28;20097;-48
2022/01/26 07:50:09;;;;;;;3.40;1.38;;;;;;;5.98;100.00;101372.63;4946760;28;20055;-48
2022/01/26 07:53:16;;;;;;;1.52;0.68;;;;;;;5.99;100.00;101382.50;4945949;28;20428;-48
2022/01/26 07:56:19;;;;;;;2.55;0.77;;;;;;;5.98;100.00;101403.03;4957526;28;20061;-48
2022/01/26 07:59:22;;;;;;;14.93;2.00;;;;;;;5.97;100.00;101409.00;4961403;28;20069;-48
2022/01/26 08:02:26;;;;;;;6.55;1.35;;;;;;;5.94;100.00;101407.81;4997547;28;20046;-48
2022/01/26 08:05:30;;;;;;;2.70;0.68;;;;;;;5.97;100.00;101415.31;5005829;28;20070;-48
2022/01/26 08:08:33;;;;;;;4.35;1.15;;;;;;;6.00;100.00;101425.53;4988497;28;20069;-48
2022/01/26 08:11:37;;;;;;;3.42;1.60;;;;;;;6.03;100.00;101433.03;4981925;28;20560;-48
2022/01/26 08:14:41;;;;;;;10.60;1.38;;;;;;;6.08;100.00;101440.91;4976148;28;20061;-49
2022/01/26 08:17:45;;;;;;;5.43;1.92;;;;;;;6.17;100.00;101442.41;4900867;28;20066;-49
2022/01/26 08:20:48;;;;;;;7.97;2.80;;;;;;;6.25;100.00;101433.66;4963100;28;20093;-50
2022/01/26 08:23:52;;;;;;;3.63;1.83;;;;;;;6.33;100.00;101439.91;4927329;29;20059;-49
2022/01/26 08:27:00;;;;;;;5.50;1.95;;;;;;;6.37;100.00;101455.28;4912966;29;20052;-49
2022/01/26 08:30:09;;;;;;;8.88;2.05;;;;;;;6.49;100.00;101445.72;4899455;29;20063;-49
2022/01/26 08:33:12;;;;;;;6.25;0.88;;;;;;;6.55;100.00;101441.28;4879531;29;20386;-49
2022/01/26 08:36:16;;;;;;;6.38;1.48;;;;;;;6.59;100.00;101453.13;4841530;29;20076;-50
2022/01/26 08:39:12;;;;;;;6.65;1.80;;;;;;;6.68;100.00;101456.19;5099131;27;20394;-50
2022/01/26 08:42:15;;;;;;;6.95;1.27;;;;;;;6.73;100.00;101444.69;5086418;27;20059;-50
2022/01/26 08:45:19;;;;;;;2.83;0.50;;;;;;;6.77;100.00;101449.00;5087276;27;20062;-50
2022/01/26 08:48:23;;;;;;;9.18;3.33;;;;;;;6.96;100.00;101458.69;5101405;27;20047;-50
2022/01/26 08:51:26;;;;;;;6.40;2.03;;;;;;;7.06;100.00;101455.00;5109753;27;20506;-50
2022/01/26 08:54:30;;;;;;;2.53;1.70;;;;;;;7.13;100.00;101449.41;5111283;27;20051;-50
2022/01/26 08:57:34;;;;;;;4.97;2.22;;;;;;;7.30;100.00;101448.41;5128415;27;20058;-50
2022/01/26 09:00:39;;;;;;;5.57;1.48;;;;;;;7.37;100.00;101437.22;5129399;27;20051;-50
2022/01/26 09:03:43;;;;;;;3.25;0.88;;;;;;;7.49;100.00;101447.75;5123672;27;20126;-50
2022/01/26 09:06:52;;;;;;;5.57;3.00;;;;;;;7.54;100.00;101452.84;5063916;28;20059;-50
2022/01/26 09:09:59;;;;;;;6.13;1.45;;;;;;;7.69;100.00;101453.44;5086960;28;20074;-50
2022/01/26 09:13:02;;;;;;;5.72;1.17;;;;;;;7.77;100.00;101454.13;5037130;28;20052;-50
2022/01/26 09:16:08;;;;;;;8.52;1.70;;;;;;;7.76;100.00;101447.00;5022302;28;20610;-50
2022/01/26 09:19:27;;;;;;;4.72;1.58;;;;;;;7.78;100.00;101444.59;5010951;28;20061;-50
2022/01/26 09:22:30;;;;;;;10.07;1.80;;;;;;;7.86;100.00;101444.06;5067468;28;20068;-52
2022/01/26 09:25:34;;;;;;;12.00;1.75;;;;;;;8.00;100.00;101445.88;5031372;28;20226;-51
2022/01/26 09:28:38;;;;;;;7.85;1.85;;;;;;;8.12;100.00;101443.28;5031884;28;20511;-51
2022/01/26 09:31:42;;;;;;;2.97;1.98;;;;;;;8.15;100.00;101447.22;5054557;28;20057;-51
2022/01/26 09:34:45;;;;;;;3.03;1.27;;;;;;;8.23;100.00;101432.00;5064661;28;20063;-51
2022/01/26 09:37:48;;;;;;;2.35;1.15;;;;;;;8.27;100.00;101435.56;5068850;28;20063;-50
2022/01/26 09:40:52;;;;;;;2.08;1.45;;;;;;;8.28;100.00;101434.34;5087099;28;20515;-51
2022/01/26 09:43:56;;;;;;;3.05;0.90;;;;;;;8.39;100.00;101421.88;5044630;28;20064;-51
2022/01/26 09:46:59;;;;;;;1.90;1.35;;;;;;;8.44;100.00;101417.03;5057427;28;20055;-51
2022/01/26 09:50:04;;;;;;;1.85;0.88;;;;;;;8.50;100.00;101418.91;5040184;28;20063;-50
2022/01/26 09:53:07;;;;;;;7.00;1.52;;;;;;;8.57;100.00;101429.09;5048725;28;20575;-50
2022/01/26 09:56:11;;;;;;;5.00;1.27;;;;;;;8.58;100.00;101423.13;5078263;28;20051;-50
2022/01/26 09:59:16;;;;;;;6.55;1.48;;;;;;;8.64;100.00;101417.88;5082753;28;20067;-51
2022/01/26 10:02:31;;;;;;;6.07;1.75;;;;;;;8.71;100.00;101415.75;5082576;27;20052;-51
2022/01/26 10:05:40;;;;;;;4.18;0.82;;;;;;;8.75;100.00;101419.25;5069160;28;20079;-51
2022/01/26 10:15:37;;;;;;;0.95;0.95;;;;;;;8.97;100.00;101392.63;5013273;28;20084;-50
2022/01/26 10:18:42;;;;;;;1.75;1.13;;;;;;;9.08;100.00;101395.97;5062244;28;20055;-51
2022/01/26 10:21:47;;;;;;;0.57;0.57;;;;;;;9.20;100.00;101399.31;5080861;28;20067;-51
2022/01/26 10:25:01;;;;;;;1.35;0.73;;;;;;;9.31;100.00;101399.88;5038769;28;20487;-51
2022/01/26 10:28:05;;;;;;;8.98;1.20;;;;;;;9.31;100.00;101394.34;5068917;28;20059;-50
2022/01/26 10:31:20;;;;;;;1.73;0.85;;;;;;;9.39;100.00;101390.19;5047967;28;20059;-50
2022/01/26 10:34:24;;;;;;;3.75;0.93;;;;;;;9.40;100.00;101380.63;5068299;28;20408;-51
2022/01/26 10:37:28;;;;;;;1.77;1.13;;;;;;;9.38;100.00;101381.03;5072742;28;20054;-51
2022/01/26 10:40:32;;;;;;;4.20;1.42;;;;;;;9.35;100.00;101372.78;5060101;28;20417;-51
2022/01/26 10:43:35;;;;;;;2.83;0.90;;;;;;;9.34;100.00;101385.13;5072683;28;20523;-51
2022/01/26 10:46:41;;;;;;;6.18;1.33;;;;;;;9.23;100.00;101393.69;5077660;28;20945;-51
2022/01/26 10:52:55;;;;;;;2.95;0.75;;;;;;;9.20;100.00;101391.00;5002976;28;20065;-50
2022/01/26 10:55:58;;;;;;;0.30;0.20;;;;;;;9.15;100.00;101381.16;4994374;28;20069;-50
2022/01/26 10:59:02;;;;;;;1.27;1.00;;;;;;;9.10;100.00;101385.22;4972213;28;20066;-50
2022/01/26 11:02:08;;;;;;;7.43;0.77;;;;;;;9.15;100.00;101381.16;5014018;28;20575;-50
2022/01/26 11:05:12;;;;;;;4.13;1.40;;;;;;;9.14;100.00;101372.03;5031238;28;20512;-50
2022/01/26 11:08:17;;;;;;;8.45;1.40;;;;;;;9.14;100.00;101369.25;5028802;28;20579;-51
2022/01/26 11:11:24;;;;;;;3.72;1.52;;;;;;;9.17;100.00;101362.06;5013888;28;20096;-50
2022/01/26 11:14:45;;;;;;;3.03;1.10;;;;;;;9.22;100.00;101360.75;4991339;28;20064;-50
2022/01/26 11:17:50;;;;;;;6.68;2.22;;;;;;;9.32;100.00;101362.53;5054703;28;20491;-51
2022/01/26 11:20:54;;;;;;;7.68;2.22;;;;;;;9.26;100.00;101353.91;5080070;28;20063;-50
2022/01/26 11:24:08;;;;;;;2.90;0.77;;;;;;;9.33;100.00;101355.75;5061651;28;20078;-51
2022/01/26 11:27:12;;;;;;;0.70;0.70;;;;;;;9.40;100.00;101356.38;5064850;28;20067;-51
2022/01/26 11:30:25;;;;;;;1.65;0.73;;;;;;;9.49;100.00;101361.34;5033700;28;20071;-51
2022/01/26 11:33:30;;;;;;;1.00;0.60;;;;;;;9.50;100.00;101357.38;5063034;28;20055;-51
2022/01/26 11:36:34;;;;;;;3.75;0.88;;;;;;;9.46;100.00;101362.22;5060628;28;20063;-51
2022/01/26 11:46:35;;;;;;;4.53;0.68;;;;;;;9.62;100.00;101348.34;5064626;28;20059;-51
2022/01/26 11:49:43;;;;;;;9.88;1.05;;;;;;;9.68;100.00;101336.25;5077532;28;20059;-50
2022/01/26 11:53:02;;;;;;;1.17;0.40;;;;;;;9.74;100.00;101336.53;5029244;28;20424;-48
2022/01/26 11:56:13;;;;;;;1.42;0.98;;;;;;;9.91;100.00;101321.41;5010374;28;20509;-49
2022/01/26 11:59:19;;;;;;;3.30;1.17;;;;;;;9.95;100.00;101313.75;5031611;28;20528;-49
2022/01/26 12:05:49;;;;;;;3.92;1.77;;;;;;;10.00;100.00;101304.88;4983384;28;20405;-50
2022/01/26 12:08:55;;;;;;;4.25;1.13;;;;;;;10.02;100.00;101310.78;5024647;28;20060;-49
2022/01/26 12:11:58;;;;;;;3.55;0.52;;;;;;;10.07;100.00;101307.47;4980463;28;20077;-51
2022/01/26 12:15:08;;;;;;;7.43;2.28;;;;;;;10.08;100.00;101303.47;5047908;28;20055;-50
2022/01/26 12:38:45;;;;;;;1.27;0.68;;;;;;;10.42;100.00;101283.50;5007030;28;20057;-49
2022/01/26 12:41:54;;;;;;;3.13;0.85;;;;;;;10.44;100.00;101281.84;5000047;28;20068;-49
2022/01/26 12:45:03;;;;;;;3.50;1.00;;;;;;;10.52;100.00;101283.22;4988537;28;20074;-50
2022/01/26 12:48:09;;;;;;;2.63;0.70;;;;;;;10.50;100.00;101279.31;5005534;28;20545;-50
2022/01/26 12:51:13;;;;;;;0.60;0.50;;;;;;;10.54;100.00;101272.44;4983694;28;20065;-49
2022/01/26 12:54:18;;;;;;;1.30;1.20;;;;;;;10.71;100.00;101266.78;4994854;28;20056;-50
2022/01/26 12:57:22;;;;;;;4.13;1.42;;;;;;;10.83;100.00;101252.09;5028908;28;20158;-50
2022/01/26 13:00:36;;;;;;;2.90;1.15;;;;;;;10.85;100.00;101244.09;5058100;28;20056;-49
2022/01/26 13:03:41;;;;;;;3.08;0.45;;;;;;;10.78;100.00;101238.72;5048266;28;20471;-49
2022/01/26 13:06:51;;;;;;;6.85;1.60;;;;;;;10.70;100.00;101229.00;5067663;28;20059;-49
2022/01/26 13:09:55;;;;;;;3.20;0.85;;;;;;;10.63;100.00;101236.31;5048518;28;20437;-49
2022/01/26 13:13:17;;;;;;;10.88;1.20;;;;;;;10.58;100.00;101236.91;5057987;28;20099;-49
2022/01/26 13:16:24;;;;;;;0.57;0.32;;;;;;;10.60;100.00;101226.09;5055874;28;20064;-49
2022/01/26 13:19:39;;;;;;;2.40;0.80;;;;;;;10.68;100.00;101221.84;5057136;28;20095;-49
2022/01/26 13:26:23;;;;;;;7.97;1.23;;;;;;;10.26;100.00;101211.97;5052783;28;20170;-49
2022/01/26 13:29:45;;;;;;;3.40;1.10;;;;;;;10.63;100.00;101211.25;5061541;28;20051;-49
2022/01/26 13:43:25;;;;;;;4.50;0.88;;;;;;;10.47;100.00;101203.00;5104445;27;20071;-49
2022/01/26 13:53:01;;;;;;;3.05;0.80;;;;;;;10.34;100.00;101185.47;5085684;28;20045;-50
2022/01/26 13:56:13;;;;;;;4.05;1.80;;;;;;;10.49;100.00;101172.69;5100908;28;20059;-50
2022/01/26 14:02:27;;;;;;;5.18;0.68;;;;;;;10.72;100.00;101168.81;5061202;28;20059;-50
2022/01/26 14:05:30;;;;;;;2.22;0.70;;;;;;;10.71;100.00;101160.91;5065074;28;20055;-50
2022/01/26 14:08:34;;;;;;;0.85;0.20;;;;;;;10.60;100.00;101161.22;5074231;28;20075;-50
2022/01/26 14:11:38;;;;;;;0.50;0.30;;;;;;;10.48;100.00;101157.19;5087944;28;20100;-50
2022/01/26 14:14:44;;;;;;;6.03;1.27;;;;;;;10.45;100.00;101148.94;5068003;28;20059;-50
2022/01/26 14:18:08;;;;;;;0.68;0.68;;;;;;;10.39;100.00;101132.03;5041523;28;20539;-50
2022/01/26 14:27:22;;;;;;;1.50;1.08;;;;;;;10.29;100.00;101124.75;5068740;28;20500;-50
2022/01/26 15:33:37;;;;;;;13.63;2.50;;;;;;;10.93;100.00;101089.34;4991744;28;20068;-50
2022/01/26 16:07:39;;;;;;;8.20;3.30;;;;;;;10.36;100.00;101043.78;4996065;28;20073;-50
2022/01/26 16:52:38;;;;;;;9.80;1.70;;;;;;;8.85;100.00;101039.69;5001612;28;20063;-50
2022/01/26 18:26:31;;;;;;;3.35;1.50;;;;;;;7.95;100.00;100960.94;5118493;27;20059;-52
2022/01/26 18:33:05;;;;;;;3.05;1.05;;;;;;;7.92;100.00;100925.75;5071761;27;20106;-51
2022/01/26 18:40:08;;;;;;;4.97;1.50;;;;;;;7.94;100.00;100928.88;5072000;28;20102;-51
2022/01/26 18:49:26;;;;;;;3.50;1.15;;;;;;;7.90;100.00;100909.53;5083036;28;20075;-53
2022/01/26 18:52:30;;;;;;;2.58;1.50;;;;;;;8.02;100.00;100931.03;5037481;27;20373;-52
2022/01/26 18:55:34;;;;;;;5.57;1.80;;;;;;;8.13;100.00;100955.75;5093123;28;20060;-53
2022/01/26 18:58:37;;;;;;;1.10;0.50;;;;;;;8.13;100.00;100944.66;5087168;27;20069;-53
2022/01/26 19:01:41;;;;;;;4.90;0.73;;;;;;;8.22;100.00;100958.72;5093711;27;20063;-52
2022/01/26 19:04:47;;;;;;;6.88;1.85;;;;;;;8.26;100.00;100965.78;5049770;28;20067;-52
2022/01/26 19:07:51;;;;;;;1.75;1.52;;;;;;;8.32;100.00;100957.69;5089747;28;20055;-52
2022/01/26 19:10:55;;;;;;;3.28;1.35;;;;;;;8.33;100.00;100948.97;5080277;28;20074;-52
2022/01/26 19:14:00;;;;;;;9.60;1.40;;;;;;;8.46;100.00;100954.59;5069690;28;20079;-52
2022/01/26 19:17:22;;;;;;;3.33;0.60;;;;;;;8.58;100.00;100958.66;5051611;28;20106;-52
2022/01/26 19:26:42;;;;;;;3.13;2.03;;;;;;;8.90;100.00;100948.28;5039947;28;20059;-52
2022/01/26 19:52:59;;;;;;;4.18;0.93;;;;;;;9.45;100.00;100921.34;5013233;28;20059;-52
2022/01/26 19:56:03;;;;;;;2.25;0.50;;;;;;;9.40;100.00;100914.31;5003141;28;20107;-51
2022/01/26 19:59:07;;;;;;;9.43;0.88;;;;;;;9.38;100.00;100905.63;4966436;28;20506;-51
2022/01/26 20:02:11;;;;;;;7.00;0.50;;;;;;;9.42;100.00;100900.00;4987759;28;20069;-54
2022/01/26 20:05:16;;;;;;;1.30;0.63;;;;;;;9.39;100.00;100887.75;5000189;28;20057;-51
2022/01/26 20:11:45;;;;;;;5.10;1.38;;;;;;;9.44;100.00;100883.66;4958029;28;20057;-50
2022/01/26 20:14:48;;;;;;;5.18;1.13;;;;;;;9.43;100.00;100868.19;5019603;28;20064;-53
2022/01/26 20:17:52;;;;;;;8.88;2.05;;;;;;;9.37;100.00;100859.63;5016032;28;20065;-52
2022/01/26 20:20:59;;;;;;;7.07;1.20;;;;;;;9.38;100.00;100860.38;5018520;28;20052;-52
2022/01/26 20:24:03;;;;;;;8.38;1.15;;;;;;;9.36;100.00;100854.47;5005818;28;20056;-52
2022/01/26 20:27:09;;;;;;;3.50;1.48;;;;;;;9.18;100.00;100853.00;5012298;28;20059;-53
2022/01/26 20:30:17;;;;;;;6.70;1.67;;;;;;;9.03;100.00;100865.75;4943953;28;20057;-52
2022/01/26 20:33:20;;;;;;;6.18;1.48;;;;;;;8.90;100.00;100859.38;5025800;28;20052;-53
2022/01/26 20:36:28;;;;;;;8.82;1.25;;;;;;;9.06;100.00;100845.44;5003825;28;20060;-52
2022/01/26 20:39:33;;;;;;;2.38;0.95;;;;;;;9.14;100.00;100829.31;5044973;28;20063;-52
2022/01/26 20:42:37;;;;;;;5.65;0.95;;;;;;;9.20;100.00;100829.56;5031635;28;20095;-52
2022/01/26 20:45:40;;;;;;;1.60;1.02;;;;;;;9.27;100.00;100821.03;5066105;28;20059;-52
2022/01/26 20:48:44;;;;;;;3.20;2.38;;;;;;;9.25;100.00;100817.91;5012009;28;20063;-52
2022/01/26 20:51:48;;;;;;;3.70;1.42;;;;;;;9.22;100.00;100813.22;5021861;28;20060;-53
2022/01/26 20:54:51;;;;;;;4.00;1.17;;;;;;;9.08;100.00;100815.22;5038411;28;20052;-52
2022/01/26 20:57:55;;;;;;;2.22;1.33;;;;;;;8.97;100.00;100814.75;5047618;28;20072;-52
2022/01/26 21:00:59;;;;;;;1.13;0.40;;;;;;;8.86;100.00;100814.25;5017176;28;20532;-52
2022/01/26 21:04:03;;;;;;;5.35;1.63;;;;;;;8.80;100.00;100799.38;5030398;28;20079;-53
2022/01/26 21:07:06;;;;;;;2.90;1.23;;;;;;;8.87;100.00;100799.16;5040373;28;20056;-52
2022/01/26 21:10:12;;;;;;;4.47;1.70;;;;;;;8.93;100.00;100794.63;5018483;28;20056;-52
2022/01/26 21:13:16;;;;;;;2.88;1.23;;;;;;;8.87;100.00;100782.50;5000597;28;20576;-52
2022/01/26 21:16:20;;;;;;;5.20;1.20;;;;;;;8.90;100.00;100784.38;5001040;28;20552;-52
2022/01/26 21:19:25;;;;;;;3.70;1.02;;;;;;;8.97;100.00;100786.97;5002281;28;20092;-52
2022/01/26 21:22:28;;;;;;;1.40;0.85;;;;;;;8.99;100.00;100787.28;4980970;28;20077;-52
2022/01/26 21:25:32;;;;;;;1.52;1.20;;;;;;;9.07;100.00;100771.19;5020873;28;20441;-53
2022/01/26 21:28:36;;;;;;;0.73;0.50;;;;;;;9.18;100.00;100771.66;5028363;28;20821;-52
2022/01/26 21:31:39;;;;;;;5.05;1.10;;;;;;;9.21;100.00;100767.19;5011957;28;20050;-52
2022/01/26 21:34:43;;;;;;;1.58;0.88;;;;;;;9.23;100.00;100765.53;5027733;28;20414;-52
2022/01/26 21:37:46;;;;;;;1.38;0.32;;;;;;;9.23;100.00;100748.84;4989906;28;20073;-53
2022/01/26 21:40:50;;;;;;;1.15;0.73;;;;;;;9.25;100.00;100751.22;4962235;28;20069;-53